sensor_id;sensor_type;location;lat;lon;timestamp;P1;durP1;ratioP1;P2;durP2;ratioP2
3523;SDS011;1776;53.330;11.498;2023-12-04T00:01:47;26.73;;;13.77;;
3523;SDS011;1776;53.330;11.498;2023-12-04T00:04:13;31.40;;;15.67;;
3523;SDS011;1776;53.330;11.498;2023-12-04T00:06:38;29.77;;;14.33;;
3523;SDS011;1776;53.330;11.498;2023-12-04T00:09:03;30.17;;;14.03;;
3523;SDS011;1776;53.330;11.498;2023-12-04T00:11:29;24.23;;;13.57;;
3523;SDS011;1776;53.330;11.498;2023-12-04T00:13:54;33.10;;;14.73;;
3523;SDS011;1776;53.330;11.498;2023-12-04T00:16:19;29.40;;;14.47;;
3523;SDS011;1776;53.330;11.498;2023-12-04T00:18:45;26.90;;;14.30;;
3523;SDS011;1776;53.330;11.498;2023-12-04T00:21:10;29.60;;;14.73;;
3523;SDS011;1776;53.330;11.498;2023-12-04T00:23:35;26.37;;;13.23;;
3523;SDS011;1776;53.330;11.498;2023-12-04T00:26:00;27.70;;;14.00;;
3523;SDS011;1776;53.330;11.498;2023-12-04T00:28:26;29.80;;;15.63;;
3523;SDS011;1776;53.330;11.498;2023-12-04T00:30:53;30.07;;;15.07;;
3523;SDS011;1776;53.330;11.498;2023-12-04T00:33:19;29.37;;;15.23;;
3523;SDS011;1776;53.330;11.498;2023-12-04T00:35:44;27.03;;;13.03;;
3523;SDS011;1776;53.330;11.498;2023-12-04T00:38:09;29.03;;;13.67;;
3523;SDS011;1776;53.330;11.498;2023-12-04T00:40:34;29.63;;;15.77;;
3523;SDS011;1776;53.330;11.498;2023-12-04T00:43:00;29.00;;;15.30;;
3523;SDS011;1776;53.330;11.498;2023-12-04T00:45:25;38.17;;;17.27;;
3523;SDS011;1776;53.330;11.498;2023-12-04T00:47:50;30.77;;;14.70;;
3523;SDS011;1776;53.330;11.498;2023-12-04T00:50:15;33.30;;;15.70;;
3523;SDS011;1776;53.330;11.498;2023-12-04T00:52:41;33.63;;;17.53;;
3523;SDS011;1776;53.330;11.498;2023-12-04T00:55:06;36.67;;;17.23;;
3523;SDS011;1776;53.330;11.498;2023-12-04T00:57:32;38.87;;;15.90;;
3523;SDS011;1776;53.330;11.498;2023-12-04T00:59:57;27.07;;;14.87;;
3523;SDS011;1776;53.330;11.498;2023-12-04T01:02:22;38.87;;;17.10;;
3523;SDS011;1776;53.330;11.498;2023-12-04T01:04:47;37.60;;;16.23;;
3523;SDS011;1776;53.330;11.498;2023-12-04T01:07:13;37.93;;;16.83;;
3523;SDS011;1776;53.330;11.498;2023-12-04T01:09:38;34.57;;;16.90;;
3523;SDS011;1776;53.330;11.498;2023-12-04T01:12:03;35.53;;;17.20;;
3523;SDS011;1776;53.330;11.498;2023-12-04T01:14:29;34.80;;;17.70;;
3523;SDS011;1776;53.330;11.498;2023-12-04T01:16:55;34.50;;;16.87;;
3523;SDS011;1776;53.330;11.498;2023-12-04T01:19:20;35.47;;;16.00;;
3523;SDS011;1776;53.330;11.498;2023-12-04T01:21:45;30.13;;;14.87;;
3523;SDS011;1776;53.330;11.498;2023-12-04T01:24:11;37.13;;;16.27;;
3523;SDS011;1776;53.330;11.498;2023-12-04T01:26:36;36.70;;;18.87;;
3523;SDS011;1776;53.330;11.498;2023-12-04T01:29:01;33.80;;;17.30;;
3523;SDS011;1776;53.330;11.498;2023-12-04T01:31:27;41.90;;;19.50;;
3523;SDS011;1776;53.330;11.498;2023-12-04T01:33:52;32.30;;;15.93;;
3523;SDS011;1776;53.330;11.498;2023-12-04T01:36:17;36.10;;;17.20;;
3523;SDS011;1776;53.330;11.498;2023-12-04T01:38:42;35.50;;;16.97;;
3523;SDS011;1776;53.330;11.498;2023-12-04T01:41:08;40.20;;;18.10;;
3523;SDS011;1776;53.330;11.498;2023-12-04T01:43:33;37.10;;;16.60;;
3523;SDS011;1776;53.330;11.498;2023-12-04T01:45:59;39.60;;;16.80;;
3523;SDS011;1776;53.330;11.498;2023-12-04T01:48:26;41.90;;;18.60;;
3523;SDS011;1776;53.330;11.498;2023-12-04T01:50:52;33.10;;;16.87;;
3523;SDS011;1776;53.330;11.498;2023-12-04T01:53:18;33.60;;;17.30;;
3523;SDS011;1776;53.330;11.498;2023-12-04T01:55:43;36.67;;;15.93;;
3523;SDS011;1776;53.330;11.498;2023-12-04T01:58:09;40.73;;;17.67;;
3523;SDS011;1776;53.330;11.498;2023-12-04T02:00:35;41.07;;;18.20;;
3523;SDS011;1776;53.330;11.498;2023-12-04T02:03:00;39.37;;;18.47;;
3523;SDS011;1776;53.330;11.498;2023-12-04T02:05:26;37.43;;;16.60;;
3523;SDS011;1776;53.330;11.498;2023-12-04T02:07:52;35.03;;;17.37;;
3523;SDS011;1776;53.330;11.498;2023-12-04T02:10:18;38.13;;;17.83;;
3523;SDS011;1776;53.330;11.498;2023-12-04T02:12:43;37.07;;;18.93;;
3523;SDS011;1776;53.330;11.498;2023-12-04T02:15:09;47.40;;;17.47;;
3523;SDS011;1776;53.330;11.498;2023-12-04T02:17:35;33.50;;;17.40;;
3523;SDS011;1776;53.330;11.498;2023-12-04T02:20:01;33.60;;;16.47;;
3523;SDS011;1776;53.330;11.498;2023-12-04T02:22:28;34.13;;;18.47;;
3523;SDS011;1776;53.330;11.498;2023-12-04T02:24:53;43.53;;;18.93;;
3523;SDS011;1776;53.330;11.498;2023-12-04T02:27:24;32.37;;;16.73;;
3523;SDS011;1776;53.330;11.498;2023-12-04T02:29:53;40.63;;;16.23;;
3523;SDS011;1776;53.330;11.498;2023-12-04T02:32:22;36.33;;;16.97;;
3523;SDS011;1776;53.330;11.498;2023-12-04T02:34:49;39.20;;;16.10;;
3523;SDS011;1776;53.330;11.498;2023-12-04T02:37:15;38.43;;;17.20;;
3523;SDS011;1776;53.330;11.498;2023-12-04T02:39:42;38.87;;;17.07;;
3523;SDS011;1776;53.330;11.498;2023-12-04T02:42:08;36.47;;;18.00;;
3523;SDS011;1776;53.330;11.498;2023-12-04T02:44:33;40.13;;;18.10;;
3523;SDS011;1776;53.330;11.498;2023-12-04T02:46:58;41.80;;;18.83;;
3523;SDS011;1776;53.330;11.498;2023-12-04T02:49:24;36.53;;;16.33;;
3523;SDS011;1776;53.330;11.498;2023-12-04T02:51:49;32.53;;;16.57;;
3523;SDS011;1776;53.330;11.498;2023-12-04T02:54:15;35.67;;;16.57;;
3523;SDS011;1776;53.330;11.498;2023-12-04T02:56:40;32.80;;;16.10;;
3523;SDS011;1776;53.330;11.498;2023-12-04T02:59:05;37.80;;;18.03;;
3523;SDS011;1776;53.330;11.498;2023-12-04T03:01:30;33.27;;;17.03;;
3523;SDS011;1776;53.330;11.498;2023-12-04T03:03:56;35.20;;;16.17;;
3523;SDS011;1776;53.330;11.498;2023-12-04T03:06:21;31.63;;;16.50;;
3523;SDS011;1776;53.330;11.498;2023-12-04T03:08:46;34.87;;;15.13;;
3523;SDS011;1776;53.330;11.498;2023-12-04T03:11:12;29.73;;;16.10;;
3523;SDS011;1776;53.330;11.498;2023-12-04T03:13:37;36.63;;;18.57;;
3523;SDS011;1776;53.330;11.498;2023-12-04T03:16:02;30.70;;;14.73;;
3523;SDS011;1776;53.330;11.498;2023-12-04T03:18:28;33.17;;;15.43;;
3523;SDS011;1776;53.330;11.498;2023-12-04T03:20:53;34.57;;;16.87;;
3523;SDS011;1776;53.330;11.498;2023-12-04T03:23:19;30.67;;;15.90;;
3523;SDS011;1776;53.330;11.498;2023-12-04T03:25:44;31.03;;;16.37;;
3523;SDS011;1776;53.330;11.498;2023-12-04T03:28:09;28.80;;;14.73;;
3523;SDS011;1776;53.330;11.498;2023-12-04T03:30:35;38.73;;;17.40;;
3523;SDS011;1776;53.330;11.498;2023-12-04T03:33:00;36.70;;;15.60;;
3523;SDS011;1776;53.330;11.498;2023-12-04T03:35:26;38.90;;;18.00;;
3523;SDS011;1776;53.330;11.498;2023-12-04T03:37:51;32.30;;;16.27;;
3523;SDS011;1776;53.330;11.498;2023-12-04T03:40:17;33.33;;;16.50;;
3523;SDS011;1776;53.330;11.498;2023-12-04T03:42:42;39.00;;;17.93;;
3523;SDS011;1776;53.330;11.498;2023-12-04T03:45:08;32.50;;;17.13;;
3523;SDS011;1776;53.330;11.498;2023-12-04T03:47:33;34.50;;;16.30;;
3523;SDS011;1776;53.330;11.498;2023-12-04T03:49:59;34.53;;;17.50;;
3523;SDS011;1776;53.330;11.498;2023-12-04T03:52:24;33.47;;;17.43;;
3523;SDS011;1776;53.330;11.498;2023-12-04T03:54:49;40.47;;;19.07;;
3523;SDS011;1776;53.330;11.498;2023-12-04T03:57:14;34.57;;;16.53;;
3523;SDS011;1776;53.330;11.498;2023-12-04T03:59:40;29.37;;;13.87;;
3523;SDS011;1776;53.330;11.498;2023-12-04T04:02:05;46.27;;;17.80;;
3523;SDS011;1776;53.330;11.498;2023-12-04T04:04:30;38.20;;;16.43;;
3523;SDS011;1776;53.330;11.498;2023-12-04T04:06:57;31.20;;;16.43;;
3523;SDS011;1776;53.330;11.498;2023-12-04T04:09:22;36.13;;;17.60;;
3523;SDS011;1776;53.330;11.498;2023-12-04T04:11:47;34.13;;;15.43;;
3523;SDS011;1776;53.330;11.498;2023-12-04T04:14:12;40.90;;;15.37;;
3523;SDS011;1776;53.330;11.498;2023-12-04T04:16:38;33.30;;;16.77;;
3523;SDS011;1776;53.330;11.498;2023-12-04T04:19:03;36.80;;;16.50;;
3523;SDS011;1776;53.330;11.498;2023-12-04T04:21:28;36.90;;;17.40;;
3523;SDS011;1776;53.330;11.498;2023-12-04T04:23:53;32.00;;;15.83;;
3523;SDS011;1776;53.330;11.498;2023-12-04T04:26:19;35.73;;;16.77;;
3523;SDS011;1776;53.330;11.498;2023-12-04T04:28:44;32.30;;;16.00;;
3523;SDS011;1776;53.330;11.498;2023-12-04T04:31:10;32.57;;;17.13;;
3523;SDS011;1776;53.330;11.498;2023-12-04T04:33:35;33.47;;;15.37;;
3523;SDS011;1776;53.330;11.498;2023-12-04T04:36:00;38.57;;;17.80;;
3523;SDS011;1776;53.330;11.498;2023-12-04T04:38:26;34.97;;;16.90;;
3523;SDS011;1776;53.330;11.498;2023-12-04T04:40:51;35.37;;;17.43;;
3523;SDS011;1776;53.330;11.498;2023-12-04T04:43:17;34.13;;;16.50;;
3523;SDS011;1776;53.330;11.498;2023-12-04T04:45:43;37.67;;;17.60;;
3523;SDS011;1776;53.330;11.498;2023-12-04T04:48:08;33.37;;;16.83;;
3523;SDS011;1776;53.330;11.498;2023-12-04T04:50:33;31.40;;;16.00;;
3523;SDS011;1776;53.330;11.498;2023-12-04T04:52:59;34.33;;;17.67;;
3523;SDS011;1776;53.330;11.498;2023-12-04T04:55:24;33.67;;;16.53;;
3523;SDS011;1776;53.330;11.498;2023-12-04T04:57:50;37.20;;;16.87;;
3523;SDS011;1776;53.330;11.498;2023-12-04T05:00:15;35.00;;;18.23;;
3523;SDS011;1776;53.330;11.498;2023-12-04T05:02:41;36.60;;;17.53;;
3523;SDS011;1776;53.330;11.498;2023-12-04T05:05:06;40.53;;;17.10;;
3523;SDS011;1776;53.330;11.498;2023-12-04T05:07:32;36.43;;;16.57;;
3523;SDS011;1776;53.330;11.498;2023-12-04T05:09:57;35.63;;;17.07;;
3523;SDS011;1776;53.330;11.498;2023-12-04T05:12:22;36.70;;;15.83;;
3523;SDS011;1776;53.330;11.498;2023-12-04T05:14:47;32.93;;;17.60;;
3523;SDS011;1776;53.330;11.498;2023-12-04T05:17:13;32.27;;;15.20;;
3523;SDS011;1776;53.330;11.498;2023-12-04T05:19:38;33.67;;;16.33;;
3523;SDS011;1776;53.330;11.498;2023-12-04T05:22:03;31.23;;;15.53;;
3523;SDS011;1776;53.330;11.498;2023-12-04T05:24:28;27.90;;;14.40;;
3523;SDS011;1776;53.330;11.498;2023-12-04T05:26:54;33.50;;;15.97;;
3523;SDS011;1776;53.330;11.498;2023-12-04T05:29:19;36.30;;;16.70;;
3523;SDS011;1776;53.330;11.498;2023-12-04T05:31:44;29.67;;;16.63;;
3523;SDS011;1776;53.330;11.498;2023-12-04T05:34:10;44.73;;;17.30;;
3523;SDS011;1776;53.330;11.498;2023-12-04T05:36:35;31.07;;;15.30;;
3523;SDS011;1776;53.330;11.498;2023-12-04T05:39:00;35.83;;;16.60;;
3523;SDS011;1776;53.330;11.498;2023-12-04T05:41:25;29.87;;;15.00;;
3523;SDS011;1776;53.330;11.498;2023-12-04T05:43:51;36.63;;;14.47;;
3523;SDS011;1776;53.330;11.498;2023-12-04T05:46:16;43.30;;;18.03;;
3523;SDS011;1776;53.330;11.498;2023-12-04T05:48:41;30.87;;;15.33;;
3523;SDS011;1776;53.330;11.498;2023-12-04T05:51:07;34.90;;;16.47;;
3523;SDS011;1776;53.330;11.498;2023-12-04T05:53:32;30.13;;;14.57;;
3523;SDS011;1776;53.330;11.498;2023-12-04T05:55:57;34.10;;;15.13;;
3523;SDS011;1776;53.330;11.498;2023-12-04T05:58:23;37.77;;;15.10;;
3523;SDS011;1776;53.330;11.498;2023-12-04T06:00:48;33.40;;;14.90;;
3523;SDS011;1776;53.330;11.498;2023-12-04T06:03:13;33.43;;;15.27;;
3523;SDS011;1776;53.330;11.498;2023-12-04T06:05:38;27.57;;;14.43;;
3523;SDS011;1776;53.330;11.498;2023-12-04T06:08:04;31.40;;;14.80;;
3523;SDS011;1776;53.330;11.498;2023-12-04T06:10:29;34.20;;;15.30;;
3523;SDS011;1776;53.330;11.498;2023-12-04T06:12:55;28.40;;;14.47;;
3523;SDS011;1776;53.330;11.498;2023-12-04T06:15:20;29.47;;;17.00;;
3523;SDS011;1776;53.330;11.498;2023-12-04T06:17:45;30.70;;;14.57;;
3523;SDS011;1776;53.330;11.498;2023-12-04T06:20:11;30.60;;;14.67;;
3523;SDS011;1776;53.330;11.498;2023-12-04T06:22:36;42.23;;;17.37;;
3523;SDS011;1776;53.330;11.498;2023-12-04T06:25:02;37.50;;;15.60;;
3523;SDS011;1776;53.330;11.498;2023-12-04T06:27:28;30.43;;;15.40;;
3523;SDS011;1776;53.330;11.498;2023-12-04T06:29:54;31.23;;;16.63;;
3523;SDS011;1776;53.330;11.498;2023-12-04T06:32:19;26.97;;;14.40;;
3523;SDS011;1776;53.330;11.498;2023-12-04T06:34:45;31.43;;;14.03;;
3523;SDS011;1776;53.330;11.498;2023-12-04T06:37:11;37.57;;;16.80;;
3523;SDS011;1776;53.330;11.498;2023-12-04T06:39:38;23.20;;;10.27;;
3523;SDS011;1776;53.330;11.498;2023-12-04T06:42:05;27.50;;;14.07;;
3523;SDS011;1776;53.330;11.498;2023-12-04T06:44:34;25.67;;;14.20;;
3523;SDS011;1776;53.330;11.498;2023-12-04T06:46:59;31.27;;;15.73;;
3523;SDS011;1776;53.330;11.498;2023-12-04T06:49:27;34.30;;;16.13;;
3523;SDS011;1776;53.330;11.498;2023-12-04T06:51:55;32.73;;;14.60;;
3523;SDS011;1776;53.330;11.498;2023-12-04T06:54:20;35.63;;;15.27;;
3523;SDS011;1776;53.330;11.498;2023-12-04T06:56:46;30.17;;;14.97;;
3523;SDS011;1776;53.330;11.498;2023-12-04T06:59:11;33.07;;;15.23;;
3523;SDS011;1776;53.330;11.498;2023-12-04T07:01:36;30.97;;;14.80;;
3523;SDS011;1776;53.330;11.498;2023-12-04T07:04:01;29.90;;;14.90;;
3523;SDS011;1776;53.330;11.498;2023-12-04T07:06:34;29.60;;;13.90;;
3523;SDS011;1776;53.330;11.498;2023-12-04T07:09:00;36.07;;;15.40;;
3523;SDS011;1776;53.330;11.498;2023-12-04T07:11:26;24.47;;;14.70;;
3523;SDS011;1776;53.330;11.498;2023-12-04T07:13:51;28.27;;;13.43;;
3523;SDS011;1776;53.330;11.498;2023-12-04T07:16:16;25.77;;;15.23;;
3523;SDS011;1776;53.330;11.498;2023-12-04T07:18:42;27.30;;;14.70;;
3523;SDS011;1776;53.330;11.498;2023-12-04T07:21:07;30.83;;;14.30;;
3523;SDS011;1776;53.330;11.498;2023-12-04T07:23:33;29.97;;;14.57;;
3523;SDS011;1776;53.330;11.498;2023-12-04T07:25:58;26.20;;;13.27;;
3523;SDS011;1776;53.330;11.498;2023-12-04T07:28:23;32.93;;;14.47;;
3523;SDS011;1776;53.330;11.498;2023-12-04T07:30:49;27.50;;;13.97;;
3523;SDS011;1776;53.330;11.498;2023-12-04T07:33:14;33.30;;;14.40;;
3523;SDS011;1776;53.330;11.498;2023-12-04T07:35:39;32.97;;;16.60;;
3523;SDS011;1776;53.330;11.498;2023-12-04T07:38:05;31.40;;;14.30;;
3523;SDS011;1776;53.330;11.498;2023-12-04T07:40:30;28.00;;;14.20;;
3523;SDS011;1776;53.330;11.498;2023-12-04T07:42:55;23.23;;;12.97;;
3523;SDS011;1776;53.330;11.498;2023-12-04T07:45:20;28.37;;;14.50;;
3523;SDS011;1776;53.330;11.498;2023-12-04T07:47:46;31.13;;;15.13;;
3523;SDS011;1776;53.330;11.498;2023-12-04T07:50:11;28.40;;;12.20;;
3523;SDS011;1776;53.330;11.498;2023-12-04T07:52:37;29.87;;;14.70;;
3523;SDS011;1776;53.330;11.498;2023-12-04T07:55:02;34.60;;;14.57;;
3523;SDS011;1776;53.330;11.498;2023-12-04T07:57:27;38.37;;;15.30;;
3523;SDS011;1776;53.330;11.498;2023-12-04T07:59:52;30.10;;;12.90;;
3523;SDS011;1776;53.330;11.498;2023-12-04T08:02:18;25.67;;;14.23;;
3523;SDS011;1776;53.330;11.498;2023-12-04T08:04:43;31.13;;;14.93;;
3523;SDS011;1776;53.330;11.498;2023-12-04T08:07:08;34.93;;;15.40;;
3523;SDS011;1776;53.330;11.498;2023-12-04T08:09:34;37.53;;;18.13;;
3523;SDS011;1776;53.330;11.498;2023-12-04T08:11:59;31.73;;;15.30;;
3523;SDS011;1776;53.330;11.498;2023-12-04T08:14:24;30.97;;;15.70;;
3523;SDS011;1776;53.330;11.498;2023-12-04T08:16:51;25.97;;;14.10;;
3523;SDS011;1776;53.330;11.498;2023-12-04T08:19:16;40.73;;;16.43;;
3523;SDS011;1776;53.330;11.498;2023-12-04T08:21:42;31.33;;;14.70;;
3523;SDS011;1776;53.330;11.498;2023-12-04T08:24:07;29.70;;;13.57;;
3523;SDS011;1776;53.330;11.498;2023-12-04T08:26:32;32.33;;;14.30;;
3523;SDS011;1776;53.330;11.498;2023-12-04T08:28:58;30.60;;;15.20;;
3523;SDS011;1776;53.330;11.498;2023-12-04T08:31:23;26.37;;;12.10;;
3523;SDS011;1776;53.330;11.498;2023-12-04T08:33:49;33.20;;;16.10;;
3523;SDS011;1776;53.330;11.498;2023-12-04T08:36:14;33.17;;;15.03;;
3523;SDS011;1776;53.330;11.498;2023-12-04T08:38:40;31.33;;;16.07;;
3523;SDS011;1776;53.330;11.498;2023-12-04T08:41:05;35.47;;;15.97;;
3523;SDS011;1776;53.330;11.498;2023-12-04T08:43:31;42.30;;;16.23;;
3523;SDS011;1776;53.330;11.498;2023-12-04T08:45:56;34.57;;;16.37;;
3523;SDS011;1776;53.330;11.498;2023-12-04T08:48:22;34.30;;;17.27;;
3523;SDS011;1776;53.330;11.498;2023-12-04T08:50:47;33.53;;;16.03;;
3523;SDS011;1776;53.330;11.498;2023-12-04T08:53:13;39.07;;;16.90;;
3523;SDS011;1776;53.330;11.498;2023-12-04T08:55:39;31.63;;;15.47;;
3523;SDS011;1776;53.330;11.498;2023-12-04T08:58:04;30.13;;;17.33;;
3523;SDS011;1776;53.330;11.498;2023-12-04T09:00:29;32.80;;;14.57;;
3523;SDS011;1776;53.330;11.498;2023-12-04T09:02:55;39.37;;;15.77;;
3523;SDS011;1776;53.330;11.498;2023-12-04T09:05:20;37.90;;;15.20;;
3523;SDS011;1776;53.330;11.498;2023-12-04T09:07:46;31.20;;;15.17;;
3523;SDS011;1776;53.330;11.498;2023-12-04T09:10:11;30.20;;;16.50;;
3523;SDS011;1776;53.330;11.498;2023-12-04T09:12:36;31.00;;;15.23;;
3523;SDS011;1776;53.330;11.498;2023-12-04T09:15:03;29.07;;;15.13;;
3523;SDS011;1776;53.330;11.498;2023-12-04T09:17:29;30.23;;;14.83;;
3523;SDS011;1776;53.330;11.498;2023-12-04T09:19:54;31.97;;;15.73;;
3523;SDS011;1776;53.330;11.498;2023-12-04T09:22:20;33.07;;;15.53;;
3523;SDS011;1776;53.330;11.498;2023-12-04T09:24:45;29.50;;;14.00;;
3523;SDS011;1776;53.330;11.498;2023-12-04T09:27:10;41.97;;;18.70;;
3523;SDS011;1776;53.330;11.498;2023-12-04T09:29:36;34.00;;;15.73;;
3523;SDS011;1776;53.330;11.498;2023-12-04T09:32:01;34.73;;;16.23;;
3523;SDS011;1776;53.330;11.498;2023-12-04T09:34:26;35.13;;;16.83;;
3523;SDS011;1776;53.330;11.498;2023-12-04T09:36:51;33.47;;;16.63;;
3523;SDS011;1776;53.330;11.498;2023-12-04T09:39:17;36.03;;;16.37;;
3523;SDS011;1776;53.330;11.498;2023-12-04T09:41:42;36.83;;;16.30;;
3523;SDS011;1776;53.330;11.498;2023-12-04T09:44:09;34.03;;;15.67;;
3523;SDS011;1776;53.330;11.498;2023-12-04T09:46:34;33.67;;;15.27;;
3523;SDS011;1776;53.330;11.498;2023-12-04T09:48:59;30.60;;;14.17;;
3523;SDS011;1776;53.330;11.498;2023-12-04T09:51:27;37.13;;;15.77;;
3523;SDS011;1776;53.330;11.498;2023-12-04T09:53:52;32.27;;;15.07;;
3523;SDS011;1776;53.330;11.498;2023-12-04T09:56:20;36.10;;;16.20;;
3523;SDS011;1776;53.330;11.498;2023-12-04T09:58:47;28.77;;;15.20;;
3523;SDS011;1776;53.330;11.498;2023-12-04T10:01:17;34.90;;;17.37;;
3523;SDS011;1776;53.330;11.498;2023-12-04T10:03:42;27.40;;;14.00;;
3523;SDS011;1776;53.330;11.498;2023-12-04T10:06:08;29.23;;;14.20;;
3523;SDS011;1776;53.330;11.498;2023-12-04T10:08:34;29.33;;;14.30;;
3523;SDS011;1776;53.330;11.498;2023-12-04T10:10:59;32.83;;;15.07;;
3523;SDS011;1776;53.330;11.498;2023-12-04T10:13:26;35.40;;;15.90;;
3523;SDS011;1776;53.330;11.498;2023-12-04T10:15:52;32.27;;;14.80;;
3523;SDS011;1776;53.330;11.498;2023-12-04T10:18:24;30.47;;;14.67;;
3523;SDS011;1776;53.330;11.498;2023-12-04T10:20:53;29.93;;;15.57;;
3523;SDS011;1776;53.330;11.498;2023-12-04T10:23:22;32.83;;;16.07;;
3523;SDS011;1776;53.330;11.498;2023-12-04T10:25:48;33.80;;;15.33;;
3523;SDS011;1776;53.330;11.498;2023-12-04T10:28:15;35.10;;;14.07;;
3523;SDS011;1776;53.330;11.498;2023-12-04T10:30:41;25.60;;;12.33;;
3523;SDS011;1776;53.330;11.498;2023-12-04T10:33:07;29.87;;;15.47;;
3523;SDS011;1776;53.330;11.498;2023-12-04T10:35:33;30.87;;;15.17;;
3523;SDS011;1776;53.330;11.498;2023-12-04T10:38:02;29.03;;;15.10;;
3523;SDS011;1776;53.330;11.498;2023-12-04T10:40:29;29.97;;;14.57;;
3523;SDS011;1776;53.330;11.498;2023-12-04T10:43:31;34.33;;;16.63;;
3523;SDS011;1776;53.330;11.498;2023-12-04T10:45:50;27.87;;;16.80;;
3523;SDS011;1776;53.330;11.498;2023-12-04T10:48:17;30.37;;;14.57;;
3523;SDS011;1776;53.330;11.498;2023-12-04T10:50:43;29.00;;;16.33;;
3523;SDS011;1776;53.330;11.498;2023-12-04T10:53:11;27.37;;;14.90;;
3523;SDS011;1776;53.330;11.498;2023-12-04T10:55:38;27.13;;;13.47;;
3523;SDS011;1776;53.330;11.498;2023-12-04T10:58:05;29.17;;;13.00;;
3523;SDS011;1776;53.330;11.498;2023-12-04T11:00:32;25.80;;;12.83;;
3523;SDS011;1776;53.330;11.498;2023-12-04T11:03:03;28.10;;;15.07;;
3523;SDS011;1776;53.330;11.498;2023-12-04T11:05:32;32.73;;;15.00;;
3523;SDS011;1776;53.330;11.498;2023-12-04T11:08:02;32.07;;;14.13;;
3523;SDS011;1776;53.330;11.498;2023-12-04T11:10:28;24.50;;;13.17;;
3523;SDS011;1776;53.330;11.498;2023-12-04T11:12:57;25.70;;;14.33;;
3523;SDS011;1776;53.330;11.498;2023-12-04T11:15:31;26.03;;;13.13;;
3523;SDS011;1776;53.330;11.498;2023-12-04T11:18:04;24.47;;;12.70;;
3523;SDS011;1776;53.330;11.498;2023-12-04T11:20:31;27.60;;;14.13;;
3523;SDS011;1776;53.330;11.498;2023-12-04T11:23:06;25.47;;;12.80;;
3523;SDS011;1776;53.330;11.498;2023-12-04T11:25:32;24.77;;;13.43;;
3523;SDS011;1776;53.330;11.498;2023-12-04T11:28:00;26.73;;;11.50;;
3523;SDS011;1776;53.330;11.498;2023-12-04T11:30:26;24.87;;;12.80;;
3523;SDS011;1776;53.330;11.498;2023-12-04T11:32:53;27.90;;;13.80;;
3523;SDS011;1776;53.330;11.498;2023-12-04T11:35:21;28.57;;;13.00;;
3523;SDS011;1776;53.330;11.498;2023-12-04T11:37:50;24.33;;;12.23;;
3523;SDS011;1776;53.330;11.498;2023-12-04T11:40:17;24.80;;;13.83;;
3523;SDS011;1776;53.330;11.498;2023-12-04T11:42:43;25.00;;;12.67;;
3523;SDS011;1776;53.330;11.498;2023-12-04T11:45:08;31.20;;;11.37;;
3523;SDS011;1776;53.330;11.498;2023-12-04T11:47:50;24.67;;;11.83;;
3523;SDS011;1776;53.330;11.498;2023-12-04T11:50:16;18.43;;;10.40;;
3523;SDS011;1776;53.330;11.498;2023-12-04T11:52:43;22.23;;;10.93;;
3523;SDS011;1776;53.330;11.498;2023-12-04T11:55:10;30.33;;;13.53;;
3523;SDS011;1776;53.330;11.498;2023-12-04T11:57:36;19.63;;;10.40;;
3523;SDS011;1776;53.330;11.498;2023-12-04T12:00:13;19.90;;;10.80;;
3523;SDS011;1776;53.330;11.498;2023-12-04T12:03:03;26.43;;;13.13;;
3523;SDS011;1776;53.330;11.498;2023-12-04T12:05:31;31.17;;;13.27;;
3523;SDS011;1776;53.330;11.498;2023-12-04T12:07:59;22.20;;;11.00;;
3523;SDS011;1776;53.330;11.498;2023-12-04T12:10:25;21.10;;;10.97;;
3523;SDS011;1776;53.330;11.498;2023-12-04T12:12:52;22.93;;;10.23;;
3523;SDS011;1776;53.330;11.498;2023-12-04T12:15:17;24.07;;;11.80;;
3523;SDS011;1776;53.330;11.498;2023-12-04T12:17:43;19.30;;;10.63;;
3523;SDS011;1776;53.330;11.498;2023-12-04T12:20:08;20.50;;;10.33;;
3523;SDS011;1776;53.330;11.498;2023-12-04T12:22:36;19.43;;;11.10;;
3523;SDS011;1776;53.330;11.498;2023-12-04T12:25:06;18.10;;;11.40;;
3523;SDS011;1776;53.330;11.498;2023-12-04T12:27:32;23.70;;;11.60;;
3523;SDS011;1776;53.330;11.498;2023-12-04T12:29:57;18.00;;;10.27;;
3523;SDS011;1776;53.330;11.498;2023-12-04T12:32:23;20.80;;;10.00;;
3523;SDS011;1776;53.330;11.498;2023-12-04T12:34:48;17.40;;;10.13;;
3523;SDS011;1776;53.330;11.498;2023-12-04T12:37:13;19.50;;;10.47;;
3523;SDS011;1776;53.330;11.498;2023-12-04T12:39:40;22.13;;;11.30;;
3523;SDS011;1776;53.330;11.498;2023-12-04T12:42:05;19.50;;;10.53;;
3523;SDS011;1776;53.330;11.498;2023-12-04T12:44:40;17.50;;;9.10;;
3523;SDS011;1776;53.330;11.498;2023-12-04T12:47:06;15.83;;;9.13;;
3523;SDS011;1776;53.330;11.498;2023-12-04T12:49:32;15.80;;;9.10;;
3523;SDS011;1776;53.330;11.498;2023-12-04T12:51:59;17.43;;;9.43;;
3523;SDS011;1776;53.330;11.498;2023-12-04T12:54:25;17.83;;;9.13;;
3523;SDS011;1776;53.330;11.498;2023-12-04T12:56:50;17.93;;;10.20;;
3523;SDS011;1776;53.330;11.498;2023-12-04T12:59:16;20.27;;;9.67;;
3523;SDS011;1776;53.330;11.498;2023-12-04T13:01:42;20.90;;;10.10;;
3523;SDS011;1776;53.330;11.498;2023-12-04T13:04:08;16.77;;;9.30;;
3523;SDS011;1776;53.330;11.498;2023-12-04T13:06:35;17.17;;;9.50;;
3523;SDS011;1776;53.330;11.498;2023-12-04T13:09:00;19.10;;;8.37;;
3523;SDS011;1776;53.330;11.498;2023-12-04T13:11:25;18.27;;;9.47;;
3523;SDS011;1776;53.330;11.498;2023-12-04T13:13:50;16.33;;;8.27;;
3523;SDS011;1776;53.330;11.498;2023-12-04T13:16:16;15.90;;;9.17;;
3523;SDS011;1776;53.330;11.498;2023-12-04T13:18:41;14.53;;;7.90;;
3523;SDS011;1776;53.330;11.498;2023-12-04T13:21:07;17.00;;;9.30;;
3523;SDS011;1776;53.330;11.498;2023-12-04T13:23:35;14.57;;;8.33;;
3523;SDS011;1776;53.330;11.498;2023-12-04T13:26:00;16.83;;;8.60;;
3523;SDS011;1776;53.330;11.498;2023-12-04T13:28:26;15.30;;;7.70;;
3523;SDS011;1776;53.330;11.498;2023-12-04T13:30:51;15.53;;;8.43;;
3523;SDS011;1776;53.330;11.498;2023-12-04T13:33:17;19.37;;;8.80;;
3523;SDS011;1776;53.330;11.498;2023-12-04T13:35:43;14.77;;;7.13;;
3523;SDS011;1776;53.330;11.498;2023-12-04T13:38:08;16.03;;;8.17;;
3523;SDS011;1776;53.330;11.498;2023-12-04T13:40:38;13.97;;;7.47;;
3523;SDS011;1776;53.330;11.498;2023-12-04T13:43:06;14.87;;;8.00;;
3523;SDS011;1776;53.330;11.498;2023-12-04T13:45:50;17.73;;;9.23;;
3523;SDS011;1776;53.330;11.498;2023-12-04T13:48:16;13.03;;;8.77;;
3523;SDS011;1776;53.330;11.498;2023-12-04T13:50:43;13.20;;;7.70;;
3523;SDS011;1776;53.330;11.498;2023-12-04T13:53:08;15.57;;;7.93;;
3523;SDS011;1776;53.330;11.498;2023-12-04T13:55:33;11.47;;;7.17;;
3523;SDS011;1776;53.330;11.498;2023-12-04T13:58:02;14.70;;;7.60;;
3523;SDS011;1776;53.330;11.498;2023-12-04T14:00:28;16.93;;;7.47;;
3523;SDS011;1776;53.330;11.498;2023-12-04T14:02:53;12.97;;;7.67;;
3523;SDS011;1776;53.330;11.498;2023-12-04T14:05:25;15.60;;;7.07;;
3523;SDS011;1776;53.330;11.498;2023-12-04T14:07:50;15.40;;;6.90;;
3523;SDS011;1776;53.330;11.498;2023-12-04T14:10:15;13.50;;;8.13;;
3523;SDS011;1776;53.330;11.498;2023-12-04T14:12:41;12.50;;;7.50;;
3523;SDS011;1776;53.330;11.498;2023-12-04T14:15:06;11.73;;;6.50;;
3523;SDS011;1776;53.330;11.498;2023-12-04T14:17:31;13.70;;;7.10;;
3523;SDS011;1776;53.330;11.498;2023-12-04T14:19:57;13.77;;;7.10;;
3523;SDS011;1776;53.330;11.498;2023-12-04T14:22:22;12.10;;;6.70;;
3523;SDS011;1776;53.330;11.498;2023-12-04T14:24:47;10.93;;;6.93;;
3523;SDS011;1776;53.330;11.498;2023-12-04T14:27:13;10.73;;;6.67;;
3523;SDS011;1776;53.330;11.498;2023-12-04T14:29:39;13.77;;;7.80;;